createdAt,value
2023-05-23T00:00:36.941Z,99042.91
2023-05-23T00:02:10.364Z,99053.28
2023-05-23T00:03:43.667Z,99060.16
2023-05-23T00:05:18.128Z,99059.38
2023-05-23T00:06:51.349Z,99056.78
2023-05-23T00:08:26.192Z,99055.31
2023-05-23T00:09:59.496Z,99052.34
2023-05-23T00:11:32.297Z,99055.16
2023-05-23T00:13:09.477Z,99058.59
2023-05-23T00:14:41.740Z,99054.31
2023-05-23T00:16:14.934Z,99054.69
2023-05-23T00:17:48.690Z,99059.22
2023-05-23T00:19:22.013Z,99053.25
2023-05-23T00:20:55.370Z,99051.34
2023-05-23T00:22:27.504Z,99053.75
2023-05-23T00:24:04.970Z,99051.88
2023-05-23T00:25:38.139Z,99048.06
2023-05-23T00:27:11.630Z,99046.09
2023-05-23T00:28:43.826Z,99033.75
2023-05-23T00:30:17.534Z,99033.59
2023-05-23T00:31:51.353Z,99039.94
2023-05-23T00:33:25.060Z,99044.22
2023-05-23T00:34:58.231Z,99039.88
2023-05-23T00:36:31.612Z,99047.69
2023-05-23T00:38:04.855Z,99044.22
2023-05-23T00:39:39.484Z,99040.00
2023-05-23T00:41:12.541Z,99052.50
2023-05-23T00:42:46.306Z,99050.03
2023-05-23T00:44:20.324Z,99057.09
2023-05-23T00:45:53.958Z,99052.03
2023-05-23T00:47:27.296Z,99049.84
2023-05-23T00:49:00.934Z,99055.16
2023-05-23T00:50:34.334Z,99055.91
2023-05-23T00:52:08.254Z,99050.47
2023-05-23T00:53:41.431Z,99041.72
2023-05-23T00:55:16.924Z,99049.78
2023-05-23T00:56:49.226Z,99042.66
2023-05-23T00:58:23.148Z,99047.03
2023-05-23T00:59:55.823Z,99040.00
2023-05-23T01:01:29.467Z,99046.31
2023-05-23T01:03:03.270Z,99042.94
2023-05-23T01:04:38.134Z,99040.44
2023-05-23T01:06:12.040Z,99035.06
2023-05-23T01:07:44.532Z,99040.16
2023-05-23T01:11:18.874Z,99036.72
2023-05-23T01:13:06.598Z,99045.59
2023-05-23T01:14:48.634Z,99037.72
2023-05-23T01:16:31.563Z,99038.72
2023-05-23T01:18:11.453Z,99046.75
2023-05-23T01:19:56.772Z,99040.28
2023-05-23T01:21:32.006Z,99042.47
2023-05-23T01:23:24.690Z,99039.88
2023-05-23T01:25:09.137Z,99039.00
2023-05-23T01:27:02.481Z,99037.44
2023-05-23T01:28:42.413Z,99037.75
2023-05-23T01:30:19.895Z,99025.88
2023-05-23T01:31:55.862Z,99024.75
2023-05-23T01:33:30.968Z,99042.09
2023-05-23T01:35:05.766Z,99046.06
2023-05-23T01:36:41.943Z,99042.84
2023-05-23T01:38:14.233Z,99049.28
2023-05-23T01:39:47.812Z,99041.25
2023-05-23T01:41:21.629Z,99052.72
2023-05-23T01:42:57.743Z,99048.88
2023-05-23T01:44:32.999Z,99047.94
2023-05-23T01:46:09.250Z,99048.88
2023-05-23T01:47:44.089Z,99053.03
2023-05-23T01:49:19.622Z,99054.66
2023-05-23T01:50:53.529Z,99053.59
2023-05-23T01:52:26.558Z,99045.69
2023-05-23T01:54:01.353Z,99044.47
2023-05-23T01:55:35.594Z,99052.34
2023-05-23T01:57:08.876Z,99050.56
2023-05-23T01:58:42.478Z,99044.41
2023-05-23T02:00:17.456Z,99046.19
2023-05-23T02:01:53.286Z,99050.16
2023-05-23T02:03:26.853Z,99051.44
2023-05-23T02:05:00.128Z,99056.88
2023-05-23T02:06:33.889Z,99051.03
2023-05-23T02:08:06.112Z,99058.97
2023-05-23T02:09:39.319Z,99051.03
2023-05-23T02:11:12.505Z,99056.16
2023-05-23T02:12:45.652Z,99051.03
2023-05-23T02:14:19.728Z,99048.38
2023-05-23T02:15:54.345Z,99061.31
2023-05-23T02:17:27.228Z,99055.88
2023-05-23T02:19:02.434Z,99045.28
2023-05-23T02:20:35.790Z,99047.94
2023-05-23T02:22:10.594Z,99047.44
2023-05-23T02:23:43.728Z,99046.81
2023-05-23T02:25:16.242Z,99053.81
2023-05-23T02:26:49.428Z,99058.31
2023-05-23T02:28:23.182Z,99047.06
2023-05-23T02:29:56.447Z,99052.56
2023-05-23T02:31:32.178Z,99055.44
2023-05-23T02:33:06.909Z,99057.88
2023-05-23T02:34:40.582Z,99061.38
2023-05-23T02:36:14.211Z,99061.03
2023-05-23T02:37:48.033Z,99054.16
2023-05-23T02:39:22.096Z,99064.09
2023-05-23T02:40:57.700Z,99059.47
2023-05-23T02:42:30.953Z,99064.75
2023-05-23T02:44:04.622Z,99062.63
2023-05-23T02:45:38.662Z,99066.97
2023-05-23T02:47:12.389Z,99062.69
2023-05-23T02:48:45.809Z,99061.53
2023-05-23T02:50:19.320Z,99059.75
2023-05-23T02:51:51.594Z,99063.25
2023-05-23T02:53:24.938Z,99071.19
2023-05-23T02:54:57.280Z,99060.72
2023-05-23T02:56:32.443Z,99070.50
2023-05-23T02:58:05.973Z,99062.63
2023-05-23T02:59:39.294Z,99064.31
2023-05-23T03:01:12.737Z,99064.19
2023-05-23T03:02:47.843Z,99062.16
2023-05-23T03:04:21.512Z,99065.63
2023-05-23T03:05:54.727Z,99046.28
2023-05-23T03:07:28.800Z,99060.19
2023-05-23T03:09:03.575Z,99067.00
2023-05-23T03:10:36.679Z,99071.16
2023-05-23T03:12:09.118Z,99065.06
2023-05-23T03:13:42.282Z,99065.34
2023-05-23T03:15:15.856Z,99069.91
2023-05-23T03:16:50.246Z,99071.63
2023-05-23T03:18:23.877Z,99069.84
2023-05-23T03:19:57.218Z,99076.88
2023-05-23T03:21:31.592Z,99074.44
2023-05-23T03:23:03.958Z,99066.78
2023-05-23T03:24:37.228Z,99069.47
2023-05-23T03:26:10.846Z,99076.38
2023-05-23T03:27:44.456Z,99075.44
2023-05-23T03:29:18.226Z,99080.66
2023-05-23T03:30:51.373Z,99084.94
2023-05-23T03:32:24.536Z,99086.81
2023-05-23T03:33:59.545Z,99086.81
2023-05-23T03:35:31.663Z,99085.13
2023-05-23T03:37:05.713Z,99079.81
2023-05-23T03:38:38.913Z,99077.81
2023-05-23T03:40:12.762Z,99086.25
2023-05-23T03:41:46.211Z,99080.69
2023-05-23T03:43:20.001Z,99082.13
2023-05-23T03:44:54.634Z,99083.69
2023-05-23T03:46:28.749Z,99078.94
2023-05-23T03:48:02.871Z,99083.25
2023-05-23T03:49:38.426Z,99087.94
2023-05-23T03:51:13.502Z,99081.50
2023-05-23T03:52:47.591Z,99084.72
2023-05-23T03:54:19.893Z,99079.19
2023-05-23T03:55:54.069Z,99078.03
2023-05-23T03:57:27.756Z,99077.72
2023-05-23T03:59:01.609Z,99079.19
2023-05-23T04:00:34.874Z,99075.91
2023-05-23T04:02:10.310Z,99081.06
2023-05-23T04:03:43.641Z,99078.13
2023-05-23T04:05:18.884Z,99077.94
2023-05-23T04:06:53.397Z,99074.38
2023-05-23T04:08:26.915Z,99081.41
2023-05-23T04:09:59.183Z,99080.00
2023-05-23T04:11:32.588Z,99085.63
2023-05-23T04:13:06.586Z,99081.53
2023-05-23T04:14:40.206Z,99074.50
2023-05-23T04:16:13.032Z,99079.75
2023-05-23T04:17:47.652Z,99076.56
2023-05-23T04:19:19.901Z,99075.16
2023-05-23T04:20:54.787Z,99081.00
2023-05-23T04:22:27.970Z,99081.22
2023-05-23T04:24:00.769Z,99077.94
2023-05-23T04:25:34.275Z,99088.84
2023-05-23T04:27:15.805Z,99090.69
2023-05-23T04:28:50.347Z,99092.25
2023-05-23T04:30:23.715Z,99087.72
2023-05-23T04:31:57.254Z,99090.97
2023-05-23T04:33:31.025Z,99090.50
2023-05-23T04:35:04.640Z,99089.84
2023-05-23T04:36:40.794Z,99094.34
2023-05-23T04:38:14.607Z,99095.88
2023-05-23T04:39:47.337Z,99091.69
2023-05-23T04:41:34.553Z,99094.19
2023-05-23T04:43:29.623Z,99088.53
2023-05-23T04:45:19.547Z,99091.63
2023-05-23T04:47:03.000Z,99098.03
2023-05-23T04:49:00.792Z,99092.13
2023-05-23T04:50:35.897Z,99093.91
2023-05-23T04:52:11.602Z,99094.81
2023-05-23T04:53:47.087Z,99107.16
2023-05-23T04:55:21.877Z,99097.53
2023-05-23T04:56:55.354Z,99097.84
2023-05-23T04:58:31.888Z,99098.34
2023-05-23T05:00:10.688Z,99105.03
2023-05-23T05:01:44.697Z,99099.50
2023-05-23T05:03:19.590Z,99104.09
2023-05-23T05:04:54.070Z,99092.69
2023-05-23T05:06:27.454Z,99096.69
2023-05-23T05:08:02.041Z,99095.75
2023-05-23T05:09:35.510Z,99085.63
2023-05-23T05:11:08.906Z,99095.69
2023-05-23T05:12:42.078Z,99094.44
2023-05-23T05:14:15.799Z,99093.19
2023-05-23T05:15:49.275Z,99087.84
2023-05-23T05:17:23.757Z,99090.59
2023-05-23T05:19:12.401Z,99081.63
2023-05-23T05:20:45.952Z,99092.31
2023-05-23T05:22:22.511Z,99088.13
2023-05-23T05:23:57.753Z,99084.06
2023-05-23T05:25:32.376Z,99082.38
2023-05-23T05:27:06.480Z,99093.44
2023-05-23T05:28:39.824Z,99089.81
2023-05-23T05:30:13.784Z,99085.72
2023-05-23T05:31:57.253Z,99086.78
2023-05-23T05:33:36.032Z,99088.78
2023-05-23T05:35:15.246Z,99084.47
2023-05-23T05:36:50.028Z,99081.34
2023-05-23T05:38:24.826Z,99083.19
2023-05-23T05:39:59.669Z,99081.88
2023-05-23T05:41:33.800Z,99086.78
2023-05-23T05:43:06.952Z,99081.13
2023-05-23T05:44:40.802Z,99088.72
2023-05-23T05:46:14.892Z,99084.28
2023-05-23T05:47:48.499Z,99086.75
2023-05-23T05:49:22.397Z,99079.13
2023-05-23T05:50:55.687Z,99083.25
2023-05-23T05:52:29.091Z,99080.03
2023-05-23T05:54:02.646Z,99080.06
2023-05-23T05:55:37.182Z,99075.59
2023-05-23T05:57:10.649Z,99082.84
2023-05-23T05:58:44.394Z,99075.53
2023-05-23T06:00:20.935Z,99087.06
2023-05-23T06:02:01.634Z,99077.38
2023-05-23T06:03:35.470Z,99076.19
2023-05-23T06:05:12.347Z,99075.34
2023-05-23T06:06:46.075Z,99074.84
2023-05-23T06:08:19.316Z,99068.78
2023-05-23T06:09:52.504Z,99070.66
2023-05-23T06:11:28.096Z,99078.19
2023-05-23T06:13:01.657Z,99075.66
2023-05-23T06:14:35.084Z,99076.50
2023-05-23T06:16:08.765Z,99065.19
2023-05-23T06:17:42.512Z,99062.13
2023-05-23T06:19:16.017Z,99060.44
2023-05-23T06:20:49.275Z,99061.41
2023-05-23T06:22:23.714Z,99057.00
2023-05-23T06:23:57.376Z,99066.78
2023-05-23T06:25:31.738Z,99062.69
2023-05-23T06:27:05.982Z,99055.03
2023-05-23T06:28:40.395Z,99051.31
2023-05-23T06:30:14.916Z,99055.59
2023-05-23T06:31:48.212Z,99056.84
2023-05-23T06:33:21.428Z,99056.69
2023-05-23T06:34:55.547Z,99058.25
2023-05-23T06:36:28.832Z,99054.41
2023-05-23T06:38:03.416Z,99058.69
2023-05-23T06:39:36.875Z,99052.16
2023-05-23T06:41:10.065Z,99055.91
2023-05-23T06:42:45.822Z,99056.22
2023-05-23T06:44:39.729Z,99053.88
2023-05-23T06:46:12.891Z,99052.00
2023-05-23T06:47:48.446Z,99051.78
2023-05-23T06:49:22.446Z,99049.34
2023-05-23T06:50:56.057Z,99049.47
2023-05-23T06:52:29.705Z,99052.22
2023-05-23T06:54:03.425Z,99052.75
2023-05-23T06:55:36.953Z,99042.91
2023-05-23T06:57:11.898Z,99050.03
2023-05-23T06:58:47.258Z,99047.16
2023-05-23T07:00:21.765Z,99038.13
2023-05-23T07:02:08.109Z,99035.31
2023-05-23T07:03:44.572Z,99041.34
2023-05-23T07:05:18.945Z,99036.41
2023-05-23T07:06:57.213Z,99035.78
2023-05-23T07:08:30.776Z,99026.22
2023-05-23T07:10:09.195Z,99024.56
2023-05-23T07:11:43.051Z,99027.44
2023-05-23T07:13:17.208Z,99029.31
2023-05-23T07:14:51.917Z,99022.03
2023-05-23T07:16:26.730Z,99029.75
2023-05-23T07:18:08.141Z,99030.66
2023-05-23T07:19:42.250Z,99027.53
2023-05-23T07:21:15.420Z,99019.41
2023-05-23T07:22:49.009Z,99023.81
2023-05-23T07:24:24.492Z,99015.56
2023-05-23T07:26:03.166Z,99018.19
2023-05-23T07:28:08.907Z,99016.63
2023-05-23T07:29:42.346Z,99012.41
2023-05-23T07:31:18.918Z,99007.34
2023-05-23T07:32:53.818Z,98999.72
2023-05-23T07:34:30.746Z,99007.78
2023-05-23T07:36:07.324Z,98999.72
2023-05-23T07:37:40.788Z,99001.75
2023-05-23T07:39:15.626Z,99000.28
2023-05-23T07:40:55.631Z,99003.81
2023-05-23T07:42:40.773Z,98995.97
2023-05-23T07:44:14.303Z,99004.75
2023-05-23T07:45:47.600Z,98997.84
2023-05-23T07:47:22.370Z,99001.53
2023-05-23T07:48:56.934Z,98999.38
2023-05-23T07:50:30.301Z,99000.44
2023-05-23T07:52:07.040Z,98993.94
2023-05-23T07:53:41.522Z,99002.88
2023-05-23T07:55:18.301Z,98995.94
2023-05-23T07:56:51.798Z,98993.66
2023-05-23T07:58:25.274Z,98995.03
2023-05-23T07:59:59.280Z,99002.94
2023-05-23T08:01:34.516Z,98995.44
2023-05-23T08:03:12.127Z,98994.75
2023-05-23T08:04:57.112Z,99000.38
2023-05-23T08:06:32.090Z,98991.34
2023-05-23T08:08:07.885Z,98990.00
2023-05-23T08:09:41.872Z,98990.31
2023-05-23T08:11:17.718Z,98992.00
2023-05-23T08:12:56.628Z,98988.56
2023-05-23T08:14:42.345Z,98981.00
2023-05-23T08:16:44.347Z,98976.88
2023-05-23T08:18:24.818Z,98987.66
2023-05-23T08:19:58.017Z,98973.94
2023-05-23T08:21:32.072Z,98979.84
2023-05-23T08:23:06.377Z,98980.16
2023-05-23T08:24:40.089Z,98983.53
2023-05-23T08:26:13.286Z,98978.00
2023-05-23T08:27:46.787Z,98982.28
2023-05-23T08:29:37.464Z,98981.13
2023-05-23T08:31:11.765Z,98969.16
2023-05-23T08:32:45.184Z,98973.22
2023-05-23T08:34:19.942Z,98975.06
2023-05-23T08:35:54.309Z,98979.06
2023-05-23T08:37:27.629Z,98960.50
2023-05-23T08:39:01.416Z,98966.38
2023-05-23T08:40:38.074Z,98960.63
2023-05-23T08:42:17.827Z,98956.56
2023-05-23T08:43:51.640Z,98954.59
2023-05-23T08:45:32.213Z,98957.91
2023-05-23T08:47:06.688Z,98950.19
2023-05-23T08:48:55.134Z,98958.09
2023-05-23T08:50:32.053Z,98965.69
2023-05-23T08:52:06.294Z,98965.22
2023-05-23T08:53:44.471Z,98957.19
2023-05-23T08:55:19.195Z,98967.06
2023-05-23T08:56:52.985Z,98962.75
2023-05-23T08:58:29.370Z,98965.09
2023-05-23T09:00:10.491Z,98954.13
2023-05-23T09:01:46.521Z,98953.47
2023-05-23T09:03:22.325Z,98941.63
2023-05-23T09:05:05.795Z,98948.13
2023-05-23T09:06:40.611Z,98955.97
2023-05-23T09:08:15.527Z,98958.03
2023-05-23T09:09:49.060Z,98959.00
2023-05-23T09:11:24.451Z,98949.13
2023-05-23T09:12:58.476Z,98948.06
2023-05-23T09:14:32.117Z,98954.28
2023-05-23T09:16:12.818Z,98951.56
2023-05-23T09:18:02.088Z,98959.50
2023-05-23T09:19:42.640Z,98952.28
2023-05-23T09:21:33.867Z,98949.53
2023-05-23T09:23:39.543Z,98952.06
2023-05-23T09:25:13.194Z,98956.34
2023-05-23T09:26:48.740Z,98951.09
2023-05-23T09:28:22.455Z,98952.91
2023-05-23T09:29:55.778Z,98948.44
2023-05-23T09:31:33.730Z,98954.22
2023-05-23T09:33:09.566Z,98948.28
2023-05-23T09:34:43.865Z,98949.75
2023-05-23T09:36:17.987Z,98947.84
2023-05-23T09:37:52.722Z,98950.03
2023-05-23T09:39:27.344Z,98950.03
2023-05-23T09:41:01.002Z,98952.59
2023-05-23T09:42:35.343Z,98953.97
2023-05-23T09:44:10.668Z,98945.44
2023-05-23T09:45:43.941Z,98951.38
2023-05-23T09:47:17.646Z,98946.50
2023-05-23T09:48:52.369Z,98955.41
2023-05-23T09:50:32.250Z,98937.44
2023-05-23T09:52:05.902Z,98938.16
2023-05-23T09:53:39.076Z,98939.75
2023-05-23T09:55:14.102Z,98942.81
2023-05-23T09:56:47.951Z,98935.66
2023-05-23T09:58:22.024Z,98947.50
2023-05-23T09:59:56.497Z,98939.34
2023-05-23T10:01:32.927Z,98940.22
2023-05-23T10:03:13.372Z,98939.69
2023-05-23T10:04:46.919Z,98933.84
2023-05-23T10:06:26.996Z,98932.09
2023-05-23T10:08:03.011Z,98929.56
2023-05-23T10:09:39.501Z,98936.28
2023-05-23T10:11:51.640Z,98939.16
2023-05-23T10:13:29.966Z,98934.25
2023-05-23T10:15:05.631Z,98931.66
2023-05-23T10:16:45.481Z,98932.63
2023-05-23T10:18:27.461Z,98931.66
2023-05-23T10:20:08.653Z,98938.16
2023-05-23T10:21:47.308Z,98935.78
2023-05-23T10:23:21.305Z,98933.38
2023-05-23T10:24:55.371Z,98923.81
2023-05-23T10:26:29.119Z,98928.81
2023-05-23T10:28:04.385Z,98922.25
2023-05-23T10:29:39.742Z,98924.13
2023-05-23T10:31:13.970Z,98925.81
2023-05-23T10:32:47.660Z,98916.28
2023-05-23T10:34:27.352Z,98919.00
2023-05-23T10:36:10.395Z,98915.59
2023-05-23T10:37:50.520Z,98918.03
2023-05-23T10:39:44.516Z,98922.81
2023-05-23T10:41:24.959Z,98922.22
2023-05-23T10:43:05.721Z,98917.34
2023-05-23T10:44:40.718Z,98918.25
2023-05-23T10:46:14.843Z,98909.75
2023-05-23T10:47:49.741Z,98910.78
2023-05-23T10:49:23.475Z,98912.50
2023-05-23T10:51:07.485Z,98905.34
2023-05-23T10:52:44.119Z,98901.22
2023-05-23T10:54:19.818Z,98917.16
2023-05-23T10:55:53.512Z,98906.63
2023-05-23T10:57:28.212Z,98898.84
2023-05-23T10:59:02.662Z,98895.09
2023-05-23T11:00:37.520Z,98897.94
2023-05-23T11:02:16.319Z,98900.53
2023-05-23T11:03:55.697Z,98892.97
2023-05-23T11:05:32.038Z,98898.84
2023-05-23T11:07:06.072Z,98899.28
2023-05-23T11:08:48.542Z,98891.88
2023-05-23T11:10:24.340Z,98906.56
2023-05-23T11:12:02.855Z,98898.44
2023-05-23T11:14:03.664Z,98897.84
2023-05-23T11:15:45.872Z,98896.19
2023-05-23T11:17:20.868Z,98897.03
2023-05-23T11:18:54.332Z,98892.94
2023-05-23T11:20:28.794Z,98901.28
2023-05-23T11:22:03.539Z,98896.31
2023-05-23T11:23:43.330Z,98898.41
2023-05-23T11:25:17.052Z,98899.78
2023-05-23T11:26:55.459Z,98889.38
2023-05-23T11:28:28.687Z,98896.16
2023-05-23T11:30:04.908Z,98887.00
2023-05-23T11:31:40.782Z,98892.94
2023-05-23T11:33:15.626Z,98894.31
2023-05-23T11:34:48.981Z,98896.56
2023-05-23T11:36:23.017Z,98892.31
2023-05-23T11:37:59.075Z,98890.47
2023-05-23T11:39:32.543Z,98891.31
2023-05-23T11:41:06.448Z,98891.38
2023-05-23T11:42:43.271Z,98895.09
2023-05-23T11:44:16.710Z,98897.13
2023-05-23T11:45:50.021Z,98890.81
2023-05-23T11:47:24.709Z,98885.91
2023-05-23T11:48:57.989Z,98880.69
2023-05-23T11:50:31.207Z,98876.41
2023-05-23T11:52:05.367Z,98866.91
2023-05-23T11:53:38.713Z,98873.59
2023-05-23T11:55:12.238Z,98873.91
2023-05-23T11:56:46.247Z,98870.47
2023-05-23T11:58:19.871Z,98872.69
2023-05-23T11:59:53.234Z,98864.91
2023-05-23T12:01:31.416Z,98863.38
2023-05-23T12:03:10.098Z,98856.75
2023-05-23T12:04:43.673Z,98853.16
2023-05-23T12:06:17.402Z,98862.81
2023-05-23T12:07:51.158Z,98849.56
2023-05-23T12:09:24.309Z,98854.69
2023-05-23T12:10:59.878Z,98849.66
2023-05-23T12:12:33.854Z,98847.38
2023-05-23T12:14:07.875Z,98851.78
2023-05-23T12:15:41.068Z,98846.00
2023-05-23T12:17:15.170Z,98847.38
2023-05-23T12:18:49.940Z,98838.53
2023-05-23T12:20:23.925Z,98834.09
2023-05-23T12:21:57.147Z,98835.38
2023-05-23T12:23:33.826Z,98832.66
2023-05-23T12:25:10.360Z,98834.00
2023-05-23T12:26:53.959Z,98836.75
2023-05-23T12:28:37.348Z,98834.41
2023-05-23T12:30:11.856Z,98827.09
2023-05-23T12:31:45.405Z,98834.94
2023-05-23T12:33:20.858Z,98825.13
2023-05-23T12:34:55.724Z,98820.72
2023-05-23T12:36:32.418Z,98828.00
2023-05-23T12:38:08.068Z,98825.94
2023-05-23T12:39:44.705Z,98823.56
2023-05-23T12:41:20.218Z,98816.50
2023-05-23T12:42:56.754Z,98819.88
2023-05-23T12:44:31.888Z,98817.69
2023-05-23T12:46:06.351Z,98815.47
2023-05-23T12:47:39.644Z,98807.66
2023-05-23T12:49:13.057Z,98809.38
2023-05-23T12:50:47.779Z,98805.63
2023-05-23T12:52:21.197Z,98799.69
2023-05-23T12:53:56.837Z,98800.19
2023-05-23T12:55:30.068Z,98799.50
2023-05-23T12:57:03.253Z,98791.66
2023-05-23T12:58:37.170Z,98801.50
2023-05-23T13:00:11.943Z,98798.16
2023-05-23T13:01:45.239Z,98795.63
2023-05-23T13:03:18.409Z,98799.00
2023-05-23T13:04:52.007Z,98786.97
2023-05-23T13:06:26.825Z,98794.38
2023-05-23T13:08:00.323Z,98797.94
2023-05-23T13:09:33.514Z,98788.06
2023-05-23T13:11:06.955Z,98793.31
2023-05-23T13:12:40.223Z,98786.88
2023-05-23T13:14:13.770Z,98786.22
2023-05-23T13:15:48.263Z,98798.09
2023-05-23T13:17:23.946Z,98793.34
2023-05-23T13:19:00.069Z,98793.31
2023-05-23T13:20:34.342Z,98788.38
2023-05-23T13:22:10.583Z,98781.16
2023-05-23T13:23:43.920Z,98789.66
2023-05-23T13:25:17.634Z,98787.44
2023-05-23T13:26:51.043Z,98782.88
2023-05-23T13:28:24.535Z,98786.06
2023-05-23T13:29:57.922Z,98788.94
2023-05-23T13:31:31.451Z,98788.50
2023-05-23T13:33:05.379Z,98783.44
2023-05-23T13:34:39.005Z,98783.81
2023-05-23T13:36:12.436Z,98779.06
2023-05-23T13:37:47.357Z,98776.69
2023-05-23T13:39:21.232Z,98776.00
2023-05-23T13:40:54.717Z,98780.25
2023-05-23T13:42:28.175Z,98778.72
2023-05-23T13:44:01.624Z,98771.78
2023-05-23T13:45:34.984Z,98778.38
2023-05-23T13:47:13.283Z,98772.44
2023-05-23T13:48:46.996Z,98780.06
2023-05-23T13:50:20.951Z,98777.19
2023-05-23T13:51:54.257Z,98784.81
2023-05-23T13:53:28.853Z,98772.97
2023-05-23T13:55:02.640Z,98779.94
2023-05-23T13:56:36.966Z,98783.84
2023-05-23T13:58:10.284Z,98787.94
2023-05-23T13:59:43.421Z,98777.81
2023-05-23T14:01:17.401Z,98786.47
2023-05-23T14:02:50.779Z,98797.50
2023-05-23T14:04:24.341Z,98779.84
2023-05-23T14:05:57.480Z,98793.88
2023-05-23T14:07:30.834Z,98797.09
2023-05-23T14:09:06.517Z,98809.31
2023-05-23T14:10:40.106Z,98803.53
2023-05-23T14:12:13.528Z,98800.75
2023-05-23T14:13:46.923Z,98809.41
2023-05-23T14:15:19.268Z,98802.91
2023-05-23T14:16:52.763Z,98808.44
2023-05-23T14:18:25.988Z,98802.72
2023-05-23T14:19:59.533Z,98800.47
2023-05-23T14:21:33.149Z,98808.78
2023-05-23T14:23:06.595Z,98808.44
2023-05-23T14:24:41.210Z,98814.38
2023-05-23T14:26:14.775Z,98814.59
2023-05-23T14:27:48.117Z,98812.53
2023-05-23T14:29:21.572Z,98811.75
2023-05-23T14:30:55.711Z,98814.25
2023-05-23T14:32:29.124Z,98816.09
2023-05-23T14:34:02.605Z,98827.78
2023-05-23T14:35:36.312Z,98822.06
2023-05-23T14:37:09.510Z,98824.81
2023-05-23T14:38:45.514Z,98818.00
2023-05-23T14:40:20.522Z,98821.34
2023-05-23T14:41:53.824Z,98820.22
2023-05-23T14:43:27.101Z,98813.72
2023-05-23T14:45:00.575Z,98811.00
2023-05-23T14:46:33.941Z,98827.31
2023-05-23T14:48:07.507Z,98824.56
2023-05-23T14:49:40.656Z,98830.84
2023-05-23T14:51:26.930Z,98829.81
2023-05-23T14:53:08.654Z,98827.31
2023-05-23T14:54:43.654Z,98814.81
2023-05-23T14:56:18.617Z,98815.69
2023-05-23T14:57:52.320Z,98806.63
2023-05-23T14:59:25.697Z,98812.03
2023-05-23T15:00:58.915Z,98811.44
2023-05-23T15:02:32.504Z,98804.47
2023-05-23T15:04:09.396Z,98812.81
2023-05-23T15:05:45.790Z,98805.41
2023-05-23T15:07:20.854Z,98801.41
2023-05-23T15:08:54.237Z,98807.13
2023-05-23T15:10:28.422Z,98800.56
2023-05-23T15:12:06.082Z,98796.31
2023-05-23T15:13:39.614Z,98797.72
2023-05-23T15:15:13.181Z,98804.25
2023-05-23T15:16:48.839Z,98804.31
2023-05-23T15:18:38.917Z,98807.19
2023-05-23T15:20:14.471Z,98806.38
2023-05-23T15:21:51.061Z,98803.28
2023-05-23T15:23:25.046Z,98790.47
2023-05-23T15:24:59.856Z,98798.16
2023-05-23T15:26:36.526Z,98789.38
2023-05-23T15:28:12.766Z,98789.06
2023-05-23T15:29:47.622Z,98798.28
2023-05-23T15:31:21.031Z,98792.88
2023-05-23T15:32:57.311Z,98796.28
2023-05-23T15:34:31.762Z,98786.50
2023-05-23T15:36:05.441Z,98789.59
2023-05-23T15:37:38.680Z,98792.97
2023-05-23T15:39:12.678Z,98791.28
2023-05-23T15:40:46.990Z,98785.91
2023-05-23T15:42:20.558Z,98780.94
2023-05-23T15:43:55.205Z,98792.19
2023-05-23T15:45:28.502Z,98791.19
2023-05-23T15:47:01.700Z,98790.03
2023-05-23T15:48:35.131Z,98795.00
2023-05-23T15:50:09.315Z,98795.25
2023-05-23T15:51:42.821Z,98790.09
2023-05-23T15:53:16.061Z,98792.78
2023-05-23T15:54:49.515Z,98792.06
2023-05-23T15:56:22.801Z,98797.94
2023-05-23T15:57:56.123Z,98792.25
2023-05-23T15:59:31.570Z,98784.28
2023-05-23T16:01:05.032Z,98792.94
2023-05-23T16:02:38.648Z,98786.41
2023-05-23T16:04:12.287Z,98789.22
2023-05-23T16:05:45.613Z,98783.19
2023-05-23T16:07:19.989Z,98790.03
2023-05-23T16:08:53.298Z,98789.81
2023-05-23T16:10:26.626Z,98789.00
2023-05-23T16:12:00.005Z,98791.09
2023-05-23T16:13:33.572Z,98786.91
2023-05-23T16:15:09.450Z,98787.16
2023-05-23T16:16:43.038Z,98779.47
2023-05-23T16:18:16.483Z,98789.34
2023-05-23T16:19:49.972Z,98787.41
2023-05-23T16:21:23.160Z,98781.16
2023-05-23T16:22:56.608Z,98783.00
2023-05-23T16:24:29.797Z,98785.09
2023-05-23T16:26:03.574Z,98786.78
2023-05-23T16:27:37.087Z,98787.13
2023-05-23T16:29:12.281Z,98798.28
2023-05-23T16:30:47.016Z,98792.94
2023-05-23T16:32:20.518Z,98794.09
2023-05-23T16:33:53.694Z,98793.31
2023-05-23T16:35:27.181Z,98797.59
2023-05-23T16:37:00.695Z,98800.00
2023-05-23T16:38:34.296Z,98797.84
2023-05-23T16:40:08.656Z,98800.09
2023-05-23T16:41:42.177Z,98809.91
2023-05-23T16:43:14.518Z,98790.19
2023-05-23T16:44:47.953Z,98801.25
2023-05-23T16:46:23.273Z,98795.88
2023-05-23T16:47:56.739Z,98792.88
2023-05-23T16:49:29.888Z,98794.78
2023-05-23T16:51:03.802Z,98786.25
2023-05-23T16:52:37.057Z,98798.75
2023-05-23T16:54:10.468Z,98799.03
2023-05-23T16:55:43.739Z,98803.41
2023-05-23T16:57:17.302Z,98803.31
2023-05-23T16:58:50.639Z,98805.00
2023-05-23T17:00:24.370Z,98801.00
2023-05-23T17:01:58.860Z,98808.41
2023-05-23T17:03:32.808Z,98800.19
2023-05-23T17:05:06.635Z,98803.88
2023-05-23T17:06:40.072Z,98810.41
2023-05-23T17:08:13.298Z,98812.97
2023-05-23T17:09:47.015Z,98818.38
2023-05-23T17:11:20.199Z,98809.28
2023-05-23T17:12:53.732Z,98802.47
2023-05-23T17:14:26.888Z,98808.28
2023-05-23T17:16:00.517Z,98809.28
2023-05-23T17:17:35.270Z,98810.44
2023-05-23T17:19:08.730Z,98809.03
2023-05-23T17:20:42.173Z,98815.00
2023-05-23T17:22:15.876Z,98806.50
2023-05-23T17:23:48.997Z,98807.06
2023-05-23T17:25:22.524Z,98809.47
2023-05-23T17:26:55.670Z,98811.91
2023-05-23T17:28:29.208Z,98804.09
2023-05-23T17:30:05.097Z,98806.66
2023-05-23T17:31:38.481Z,98810.16
2023-05-23T17:33:13.287Z,98811.72
2023-05-23T17:34:47.000Z,98814.53
2023-05-23T17:36:20.364Z,98814.22
2023-05-23T17:37:57.609Z,98815.09
2023-05-23T17:39:30.783Z,98817.59
2023-05-23T17:41:04.271Z,98820.84
2023-05-23T17:42:37.410Z,98830.19
2023-05-23T17:44:10.734Z,98824.22
2023-05-23T17:45:43.869Z,98824.47
2023-05-23T17:47:18.776Z,98827.84
2023-05-23T17:48:53.312Z,98830.38
2023-05-23T17:50:26.863Z,98824.78
2023-05-23T17:52:04.734Z,98830.72
2023-05-23T17:53:41.556Z,98827.16
2023-05-23T17:55:14.833Z,98822.66
2023-05-23T17:56:48.160Z,98828.03
2023-05-23T17:58:21.618Z,98828.84
2023-05-23T17:59:55.234Z,98827.28
2023-05-23T18:01:29.272Z,98832.81
2023-05-23T18:03:02.788Z,98840.19
2023-05-23T18:04:37.677Z,98833.94
2023-05-23T18:06:11.148Z,98841.56
2023-05-23T18:07:44.234Z,98837.53
2023-05-23T18:09:17.706Z,98836.59
2023-05-23T18:10:51.288Z,98832.72
2023-05-23T18:12:24.866Z,98835.00
2023-05-23T18:13:58.032Z,98841.94
2023-05-23T18:15:31.596Z,98833.06
2023-05-23T18:17:04.820Z,98841.03
2023-05-23T18:18:38.464Z,98841.63
2023-05-23T18:20:13.928Z,98840.78
2023-05-23T18:21:47.499Z,98852.28
2023-05-23T18:23:20.869Z,98842.28
2023-05-23T18:24:54.329Z,98856.56
2023-05-23T18:26:28.261Z,98856.34
2023-05-23T18:28:03.952Z,98853.91
2023-05-23T18:29:37.350Z,98859.75
2023-05-23T18:31:10.879Z,98865.34
2023-05-23T18:32:44.141Z,98859.97
2023-05-23T18:34:17.633Z,98862.78
2023-05-23T18:35:52.699Z,98876.59
2023-05-23T18:37:27.743Z,98891.22
2023-05-23T18:39:01.069Z,98879.03
2023-05-23T18:40:34.427Z,98876.56